createdAt,value
2022-10-25T00:01:51.415Z,11.60
2022-10-25T00:04:18.238Z,11.63
2022-10-25T00:06:45.082Z,11.61
2022-10-25T00:09:11.737Z,11.67
2022-10-25T00:11:38.368Z,11.67
2022-10-25T00:14:06.934Z,11.64
2022-10-25T00:16:36.788Z,11.40
2022-10-25T00:19:04.262Z,11.57
2022-10-25T00:21:31.570Z,11.61
2022-10-25T00:23:58.176Z,11.04
2022-10-25T00:26:24.816Z,11.21
2022-10-25T00:28:53.825Z,11.53
2022-10-25T00:31:20.641Z,11.57
2022-10-25T00:33:47.200Z,11.58
2022-10-25T00:36:17.242Z,11.42
2022-10-25T00:38:44.961Z,11.64
2022-10-25T00:41:13.203Z,11.56
2022-10-25T00:43:43.646Z,11.57
2022-10-25T00:46:23.717Z,11.50
2022-10-25T00:49:15.495Z,11.55
2022-10-25T00:51:54.138Z,8.72
2022-10-25T00:54:26.622Z,11.56
2022-10-25T00:56:54.944Z,11.45
2022-10-25T00:59:26.233Z,11.37
2022-10-25T01:01:55.133Z,10.67
2022-10-25T01:04:26.986Z,11.21
2022-10-25T01:06:55.692Z,11.21
2022-10-25T01:09:26.418Z,10.79
2022-10-25T01:11:53.410Z,11.35
2022-10-25T01:14:20.587Z,11.27
2022-10-25T01:17:05.550Z,11.17
2022-10-25T01:19:53.939Z,11.16
2022-10-25T01:22:59.222Z,10.75
2022-10-25T01:25:46.168Z,10.78
2022-10-25T01:28:43.459Z,10.44
2022-10-25T01:31:10.067Z,10.37
2022-10-25T01:34:05.873Z,10.29
2022-10-25T01:36:35.267Z,10.38
2022-10-25T01:39:20.048Z,10.22
2022-10-25T01:42:07.018Z,10.53
2022-10-25T01:45:30.814Z,10.57
2022-10-25T01:48:09.397Z,10.60
2022-10-25T01:50:41.125Z,10.02
2022-10-25T01:53:07.720Z,10.48
2022-10-25T01:55:43.756Z,10.49
2022-10-25T01:58:44.151Z,10.59
2022-10-25T02:01:50.139Z,10.62
2022-10-25T02:04:16.650Z,10.61
2022-10-25T02:07:00.943Z,10.16
2022-10-25T02:09:40.452Z,10.46
2022-10-25T02:12:13.517Z,10.21
2022-10-25T02:14:44.255Z,10.45
2022-10-25T02:17:22.512Z,10.44
2022-10-25T02:19:57.367Z,10.43
2022-10-25T02:22:29.573Z,10.52
2022-10-25T02:24:57.719Z,10.29
2022-10-25T02:27:26.138Z,10.62
2022-10-25T02:29:54.822Z,10.52
2022-10-25T02:32:21.870Z,10.18
2022-10-25T02:34:49.429Z,10.17
2022-10-25T02:37:16.612Z,10.23
2022-10-25T02:39:44.803Z,10.25
2022-10-25T02:42:11.348Z,10.33
2022-10-25T02:44:37.955Z,10.28
2022-10-25T02:47:04.547Z,9.89
2022-10-25T02:49:31.143Z,10.08
2022-10-25T02:51:57.771Z,10.46
2022-10-25T02:54:24.296Z,10.55
2022-10-25T02:56:52.620Z,10.49
2022-10-25T02:59:22.425Z,10.36
2022-10-25T03:01:49.106Z,10.22
2022-10-25T03:04:15.750Z,10.29
2022-10-25T03:06:42.369Z,9.99
2022-10-25T03:09:08.929Z,10.34
2022-10-25T03:11:35.722Z,9.68
2022-10-25T03:14:02.323Z,10.26
2022-10-25T03:16:28.891Z,9.78
2022-10-25T03:18:59.506Z,9.99
2022-10-25T03:21:26.415Z,10.01
2022-10-25T03:23:53.322Z,9.97
2022-10-25T03:26:19.899Z,9.51
2022-10-25T03:28:46.645Z,9.84
2022-10-25T03:31:15.881Z,9.95
2022-10-25T03:33:42.955Z,9.91
2022-10-25T03:36:10.501Z,9.76
2022-10-25T03:38:37.108Z,9.84
2022-10-25T03:41:03.998Z,9.87
2022-10-25T03:43:30.567Z,8.50
2022-10-25T03:45:57.236Z,8.88
2022-10-25T03:48:23.860Z,8.95
2022-10-25T03:50:50.487Z,9.05
2022-10-25T03:53:17.208Z,9.20
2022-10-25T03:55:43.835Z,8.81
2022-10-25T03:58:10.398Z,8.87
2022-10-25T04:00:37.066Z,8.27
2022-10-25T04:03:03.878Z,8.87
2022-10-25T04:05:31.766Z,9.25
2022-10-25T04:07:59.209Z,9.08
2022-10-25T04:10:26.195Z,9.20
2022-10-25T04:12:54.487Z,9.17
2022-10-25T04:15:22.714Z,9.34
2022-10-25T04:17:50.526Z,9.47
2022-10-25T04:20:18.086Z,9.45
2022-10-25T04:22:44.911Z,9.47
2022-10-25T04:25:11.982Z,9.19
2022-10-25T04:27:38.692Z,9.44
2022-10-25T04:30:05.582Z,8.90
2022-10-25T04:32:32.116Z,9.73
2022-10-25T04:34:58.654Z,9.80
2022-10-25T04:37:25.263Z,9.64
2022-10-25T04:39:51.836Z,9.42
2022-10-25T04:42:19.487Z,9.77
2022-10-25T04:44:46.150Z,9.88
2022-10-25T04:47:12.770Z,9.39
2022-10-25T04:49:39.398Z,9.74
2022-10-25T04:52:06.134Z,9.74
2022-10-25T04:54:32.661Z,9.54
2022-10-25T04:56:59.463Z,9.74
2022-10-25T04:59:26.035Z,9.81
2022-10-25T05:01:52.652Z,9.52
2022-10-25T05:04:19.246Z,9.76
2022-10-25T05:06:45.821Z,9.79
2022-10-25T05:09:12.357Z,9.82
2022-10-25T05:11:38.963Z,9.68
2022-10-25T05:14:05.504Z,9.92
2022-10-25T05:16:34.825Z,10.19
2022-10-25T05:19:01.718Z,9.79
2022-10-25T05:21:30.938Z,10.27
2022-10-25T05:24:01.734Z,10.32
2022-10-25T05:26:29.806Z,10.42
2022-10-25T05:28:57.089Z,10.53
2022-10-25T05:31:28.792Z,10.60
2022-10-25T05:33:58.366Z,10.67
2022-10-25T05:36:25.774Z,10.81
2022-10-25T05:38:52.374Z,10.59
2022-10-25T05:41:19.495Z,10.89
2022-10-25T05:43:46.310Z,9.06
2022-10-25T05:46:15.718Z,10.53
2022-10-25T05:48:48.142Z,10.18
2022-10-25T05:51:38.809Z,10.82
2022-10-25T05:54:15.680Z,11.46
2022-10-25T05:56:43.240Z,10.93
2022-10-25T05:59:12.543Z,11.31
2022-10-25T06:01:44.636Z,11.13
2022-10-25T06:04:12.465Z,11.30
2022-10-25T06:06:40.735Z,11.70
2022-10-25T06:09:07.822Z,11.83
2022-10-25T06:11:34.969Z,10.92
2022-10-25T06:14:01.594Z,12.19
2022-10-25T06:16:28.905Z,12.81
2022-10-25T06:18:55.982Z,12.92
2022-10-25T06:21:25.535Z,13.18
2022-10-25T06:23:53.237Z,13.40
2022-10-25T06:26:30.343Z,13.66
2022-10-25T06:28:59.485Z,14.30
2022-10-25T06:31:26.263Z,14.10
2022-10-25T06:33:53.133Z,14.74
2022-10-25T06:36:22.331Z,15.30
2022-10-25T06:38:50.339Z,13.70
2022-10-25T06:41:21.033Z,15.76
2022-10-25T06:43:48.447Z,16.07
2022-10-25T06:46:25.058Z,15.36
2022-10-25T06:48:53.419Z,16.78
2022-10-25T06:51:21.566Z,16.77
2022-10-25T06:53:48.409Z,17.06
2022-10-25T06:56:15.270Z,16.96
2022-10-25T06:58:42.544Z,16.98
2022-10-25T07:01:14.876Z,14.53
2022-10-25T07:03:42.339Z,15.52
2022-10-25T07:06:11.803Z,16.37
2022-10-25T07:08:40.246Z,16.59
2022-10-25T07:11:07.615Z,16.22
2022-10-25T07:13:35.075Z,16.72
2022-10-25T07:16:06.873Z,17.22
2022-10-25T07:18:34.637Z,17.60
2022-10-25T07:21:01.834Z,17.92
2022-10-25T07:23:28.876Z,17.80
2022-10-25T07:25:55.647Z,17.89
2022-10-25T07:28:22.541Z,18.57
2022-10-25T07:30:49.619Z,18.76
2022-10-25T07:33:18.528Z,19.08
2022-10-25T07:35:58.836Z,18.73
2022-10-25T07:38:33.314Z,19.84
2022-10-25T07:41:00.382Z,19.97
2022-10-25T07:43:28.204Z,19.46
2022-10-25T07:45:55.701Z,19.85
2022-10-25T07:48:22.917Z,20.56
2022-10-25T07:50:49.459Z,20.57
2022-10-25T07:53:16.089Z,20.65
2022-10-25T07:55:42.770Z,20.70
2022-10-25T07:58:11.881Z,20.68
2022-10-25T08:00:38.583Z,20.41
2022-10-25T08:03:05.204Z,19.58
2022-10-25T08:05:31.913Z,19.58
2022-10-25T08:07:58.557Z,19.96
2022-10-25T08:10:25.125Z,20.24
2022-10-25T08:12:54.845Z,20.93
2022-10-25T08:15:21.643Z,20.93
2022-10-25T08:17:48.761Z,21.37
2022-10-25T08:20:15.539Z,20.90
2022-10-25T08:22:42.078Z,21.24
2022-10-25T08:25:09.318Z,21.38
2022-10-25T08:27:35.977Z,21.45
2022-10-25T08:30:02.601Z,21.63
2022-10-25T08:32:31.331Z,21.65
2022-10-25T08:34:57.970Z,21.24
2022-10-25T08:37:24.578Z,22.14
2022-10-25T08:39:53.562Z,22.58
2022-10-25T08:42:29.121Z,22.64
2022-10-25T08:45:02.031Z,22.93
2022-10-25T08:47:36.272Z,22.93
2022-10-25T08:50:22.911Z,23.16
2022-10-25T08:52:53.740Z,23.25
2022-10-25T08:55:29.850Z,23.19
2022-10-25T08:57:57.128Z,23.28
2022-10-25T09:00:24.862Z,23.30
2022-10-25T09:02:53.755Z,23.64
2022-10-25T09:05:40.813Z,23.78
2022-10-25T09:08:16.713Z,23.96
2022-10-25T09:11:14.799Z,24.06
2022-10-25T09:14:00.282Z,24.26
2022-10-25T09:16:52.745Z,24.37
2022-10-25T09:19:39.046Z,24.31
2022-10-25T09:22:24.881Z,24.48
2022-10-25T09:25:02.873Z,24.60
2022-10-25T09:27:35.134Z,24.63
2022-10-25T09:30:07.681Z,24.32
2022-10-25T09:32:45.806Z,24.76
2022-10-25T09:35:17.225Z,24.92
2022-10-25T09:37:49.526Z,24.21
2022-10-25T09:40:23.490Z,24.57
2022-10-25T09:42:52.148Z,24.79
2022-10-25T09:45:24.841Z,24.64
2022-10-25T09:47:57.188Z,25.12
2022-10-25T09:50:32.415Z,25.23
2022-10-25T09:53:14.867Z,25.18
2022-10-25T09:55:56.197Z,25.17
2022-10-25T09:58:29.187Z,25.12
2022-10-25T10:00:59.063Z,25.20
2022-10-25T10:03:32.407Z,25.23
2022-10-25T10:06:02.977Z,24.77
2022-10-25T10:08:34.960Z,25.49
2022-10-25T10:11:01.811Z,25.19
2022-10-25T10:14:10.751Z,25.75
2022-10-25T10:16:45.297Z,25.87
2022-10-25T10:19:24.660Z,25.67
2022-10-25T10:21:55.043Z,25.84
2022-10-25T10:24:26.081Z,25.80
2022-10-25T10:26:57.296Z,25.82
2022-10-25T10:29:29.117Z,25.36
2022-10-25T10:32:00.283Z,25.47
2022-10-25T10:34:43.159Z,25.26
2022-10-25T10:37:12.476Z,25.60
2022-10-25T10:40:07.982Z,25.02
2022-10-25T10:42:39.801Z,25.39
2022-10-25T10:45:08.867Z,25.30
2022-10-25T10:47:36.985Z,25.45
2022-10-25T10:50:32.735Z,25.53
2022-10-25T10:53:21.562Z,25.59
2022-10-25T10:55:50.894Z,25.73
2022-10-25T10:58:39.237Z,25.76
2022-10-25T11:01:12.659Z,25.84
2022-10-25T11:03:58.769Z,25.87
2022-10-25T11:06:34.399Z,26.05
2022-10-25T11:09:25.476Z,26.13
2022-10-25T11:12:11.123Z,26.15
2022-10-25T11:14:38.156Z,26.28
2022-10-25T11:17:22.180Z,26.54
2022-10-25T11:19:57.428Z,26.56
2022-10-25T11:23:02.696Z,26.55
2022-10-25T11:25:44.228Z,26.36
2022-10-25T11:28:47.530Z,26.88
2022-10-25T11:31:38.911Z,26.97
2022-10-25T11:34:14.404Z,27.13
2022-10-25T11:37:06.963Z,27.29
2022-10-25T11:39:48.553Z,27.20
2022-10-25T11:43:07.052Z,27.34
2022-10-25T11:45:48.725Z,27.41
2022-10-25T11:48:20.977Z,27.45
2022-10-25T11:51:01.170Z,27.34
2022-10-25T11:54:04.661Z,26.97
2022-10-25T11:56:46.816Z,27.04
2022-10-25T11:59:41.070Z,27.06
2022-10-25T12:02:21.034Z,27.12
2022-10-25T12:05:00.709Z,27.25
2022-10-25T12:07:40.670Z,27.14
2022-10-25T12:10:16.646Z,27.50
2022-10-25T12:12:50.129Z,27.63
2022-10-25T12:15:23.377Z,27.26
2022-10-25T12:17:51.145Z,27.59
2022-10-25T12:20:28.568Z,27.12
2022-10-25T12:22:58.724Z,27.44
2022-10-25T12:25:31.539Z,25.61
2022-10-25T12:28:14.502Z,27.11
2022-10-25T12:30:42.663Z,27.45
2022-10-25T12:33:28.000Z,27.49
2022-10-25T12:36:01.795Z,27.29
2022-10-25T12:38:35.411Z,27.25
2022-10-25T12:41:17.976Z,26.14
2022-10-25T12:44:06.276Z,27.18
2022-10-25T12:46:57.769Z,27.17
2022-10-25T12:49:55.670Z,27.17
2022-10-25T12:52:29.712Z,26.16
2022-10-25T12:55:25.242Z,26.82
2022-10-25T12:58:21.278Z,27.15
2022-10-25T13:01:06.364Z,27.22
2022-10-25T13:04:01.311Z,26.68
2022-10-25T13:06:36.833Z,27.26
2022-10-25T13:09:13.612Z,27.28
2022-10-25T13:12:01.144Z,27.34
2022-10-25T13:14:29.641Z,26.14
2022-10-25T13:17:18.261Z,27.11
2022-10-25T13:19:56.126Z,27.07
2022-10-25T13:22:34.224Z,27.11
2022-10-25T13:25:30.750Z,27.11
2022-10-25T13:28:15.610Z,26.41
2022-10-25T13:30:43.783Z,26.62
2022-10-25T13:33:16.470Z,27.19
2022-10-25T13:35:43.811Z,27.15
2022-10-25T13:38:24.723Z,27.16
2022-10-25T13:41:10.169Z,27.09
2022-10-25T13:43:56.379Z,26.80
2022-10-25T13:46:39.591Z,27.06
2022-10-25T13:49:42.898Z,27.01
2022-10-25T13:52:32.601Z,26.73
2022-10-25T13:54:59.678Z,26.68
2022-10-25T13:57:49.905Z,26.86
2022-10-25T14:00:28.318Z,26.80
2022-10-25T14:03:10.208Z,26.77
2022-10-25T14:05:55.367Z,26.64
2022-10-25T14:08:27.978Z,26.56
2022-10-25T14:10:55.433Z,26.16
2022-10-25T14:13:39.510Z,25.86
2022-10-25T14:16:06.767Z,26.12
2022-10-25T14:18:36.217Z,25.93
2022-10-25T14:21:05.718Z,25.80
2022-10-25T14:23:34.688Z,25.54
2022-10-25T14:26:02.910Z,25.48
2022-10-25T14:28:35.768Z,25.42
2022-10-25T14:31:06.920Z,25.38
2022-10-25T14:33:36.778Z,25.08
2022-10-25T14:36:06.069Z,25.13
2022-10-25T14:38:38.908Z,25.00
2022-10-25T14:41:12.044Z,24.81
2022-10-25T14:43:41.371Z,24.73
2022-10-25T14:46:12.275Z,24.63
2022-10-25T14:48:39.382Z,24.52
2022-10-25T14:51:12.606Z,24.18
2022-10-25T14:54:13.168Z,24.19
2022-10-25T14:56:50.835Z,24.11
2022-10-25T14:59:40.219Z,23.93
2022-10-25T15:02:17.498Z,23.21
2022-10-25T15:04:48.806Z,23.64
2022-10-25T15:07:23.113Z,23.50
2022-10-25T15:09:55.433Z,23.39
2022-10-25T15:12:26.775Z,23.05
2022-10-25T15:14:55.286Z,23.11
2022-10-25T15:17:21.793Z,22.99
2022-10-25T15:20:01.465Z,22.84
2022-10-25T15:22:38.559Z,22.68
2022-10-25T15:25:20.284Z,22.44
2022-10-25T15:27:47.186Z,22.33
2022-10-25T15:30:34.156Z,22.18
2022-10-25T15:33:01.334Z,22.02
2022-10-25T15:35:28.992Z,21.85
2022-10-25T15:37:56.156Z,21.32
2022-10-25T15:40:22.737Z,21.49
2022-10-25T15:42:49.679Z,21.02
2022-10-25T15:45:16.375Z,21.29
2022-10-25T15:47:45.052Z,21.21
2022-10-25T15:50:19.508Z,21.24
2022-10-25T15:52:46.429Z,20.82
2022-10-25T15:55:24.814Z,21.00
2022-10-25T15:57:51.626Z,20.89
2022-10-25T16:00:24.124Z,20.80
2022-10-25T16:02:54.706Z,20.67
2022-10-25T16:05:27.928Z,20.55
2022-10-25T16:07:55.350Z,20.41
2022-10-25T16:10:24.213Z,20.41
2022-10-25T16:12:58.517Z,20.30
2022-10-25T16:15:27.048Z,20.31
2022-10-25T16:17:53.610Z,20.30
2022-10-25T16:20:26.544Z,20.15
2022-10-25T16:22:54.651Z,20.09
2022-10-25T16:25:22.706Z,19.94
2022-10-25T16:27:49.796Z,19.93
2022-10-25T16:30:19.599Z,19.96
2022-10-25T16:32:46.900Z,19.96
2022-10-25T16:35:14.508Z,19.88
2022-10-25T16:37:41.918Z,19.92
2022-10-25T16:40:19.248Z,19.97
2022-10-25T16:42:46.752Z,19.83
2022-10-25T16:45:29.829Z,19.67
2022-10-25T16:47:57.535Z,19.59
2022-10-25T16:50:26.166Z,19.57
2022-10-25T16:52:55.105Z,19.46
2022-10-25T16:55:22.159Z,19.58
2022-10-25T17:00:16.049Z,19.57
2022-10-25T17:02:42.626Z,19.40
2022-10-25T17:05:17.242Z,19.27
2022-10-25T17:07:45.757Z,19.24
2022-10-25T17:10:18.516Z,19.30
2022-10-25T17:12:51.359Z,19.12
2022-10-25T17:15:18.866Z,19.13
2022-10-25T17:17:46.541Z,19.20
2022-10-25T17:20:16.123Z,19.24
2022-10-25T17:22:42.803Z,18.97
2022-10-25T17:25:10.663Z,19.00
2022-10-25T17:27:39.925Z,18.67
2022-10-25T17:30:08.812Z,18.65
2022-10-25T17:32:36.072Z,18.97
2022-10-25T17:35:02.804Z,18.95
2022-10-25T17:37:29.507Z,18.84
2022-10-25T17:39:56.137Z,18.95
2022-10-25T17:42:22.949Z,18.82
2022-10-25T17:44:49.638Z,18.67
2022-10-25T17:47:16.533Z,18.68
2022-10-25T17:49:43.254Z,18.67
2022-10-25T17:52:10.123Z,18.70
2022-10-25T17:54:38.550Z,18.71
2022-10-25T17:57:06.032Z,18.51
2022-10-25T17:59:33.337Z,18.63
2022-10-25T18:02:00.288Z,18.63
2022-10-25T18:04:27.476Z,18.69
2022-10-25T18:06:54.185Z,18.57
2022-10-25T18:09:21.094Z,18.59
2022-10-25T18:11:47.842Z,18.63
2022-10-25T18:14:14.565Z,18.68
2022-10-25T18:16:41.690Z,18.52
2022-10-25T18:19:13.998Z,18.62
2022-10-25T18:21:41.653Z,18.66
2022-10-25T18:24:11.770Z,18.59
2022-10-25T18:26:38.479Z,18.56
2022-10-25T18:29:05.367Z,18.36
2022-10-25T18:31:32.355Z,17.93
2022-10-25T18:34:03.494Z,18.36
2022-10-25T18:36:31.916Z,18.45
2022-10-25T18:38:58.706Z,18.48
2022-10-25T18:41:29.008Z,18.53
2022-10-25T18:43:56.688Z,18.25
2022-10-25T18:46:24.759Z,18.42
2022-10-25T18:48:55.880Z,18.38
2022-10-25T18:51:24.400Z,18.41
2022-10-25T18:53:55.570Z,18.39
2022-10-25T18:56:22.801Z,18.08
2022-10-25T18:58:50.402Z,18.35
2022-10-25T19:01:20.998Z,18.22
2022-10-25T19:03:47.905Z,18.17
2022-10-25T19:06:14.572Z,18.09
2022-10-25T19:08:41.351Z,17.80
2022-10-25T19:11:10.708Z,17.93
2022-10-25T19:13:37.757Z,17.86
2022-10-25T19:16:04.993Z,17.11
2022-10-25T19:18:33.300Z,17.23
2022-10-25T19:21:08.529Z,17.46
2022-10-25T19:23:36.260Z,17.42
2022-10-25T19:26:08.589Z,17.32
2022-10-25T19:28:36.037Z,17.37
2022-10-25T19:31:14.444Z,17.28
2022-10-25T19:33:48.342Z,17.19
2022-10-25T19:36:16.750Z,17.20
2022-10-25T19:38:45.267Z,17.20
2022-10-25T19:41:15.903Z,17.30
2022-10-25T19:43:42.655Z,16.95
2022-10-25T19:46:09.564Z,16.82
2022-10-25T19:48:36.232Z,17.12
2022-10-25T19:51:12.722Z,16.97
2022-10-25T19:53:39.561Z,16.65
2022-10-25T19:56:09.667Z,16.84
2022-10-25T19:58:36.682Z,16.81
2022-10-25T20:01:15.700Z,16.70
2022-10-25T20:03:44.177Z,16.69
2022-10-25T20:06:17.582Z,16.69
2022-10-25T20:08:47.393Z,16.59
2022-10-25T20:11:15.794Z,16.54
2022-10-25T20:13:42.392Z,16.39
2022-10-25T20:16:09.190Z,16.37
2022-10-25T20:18:38.250Z,16.47
2022-10-25T20:21:07.656Z,16.39
2022-10-25T20:23:35.626Z,16.33
2022-10-25T20:26:23.282Z,16.32
2022-10-25T20:28:52.656Z,16.12
2022-10-25T20:31:19.994Z,15.48
2022-10-25T20:33:46.545Z,16.18
2022-10-25T20:36:13.978Z,15.71
2022-10-25T20:38:41.147Z,15.18
2022-10-25T20:41:10.634Z,15.99
2022-10-25T20:43:38.273Z,15.96
2022-10-25T20:46:06.234Z,15.99
2022-10-25T20:48:33.457Z,15.92
2022-10-25T20:51:04.128Z,15.81
2022-10-25T20:53:33.686Z,15.98
2022-10-25T20:56:00.262Z,15.90
2022-10-25T20:58:26.844Z,15.80
2022-10-25T21:00:56.280Z,15.67
2022-10-25T21:03:24.523Z,15.59
2022-10-25T21:05:59.649Z,15.63
2022-10-25T21:08:26.446Z,15.42
2022-10-25T21:10:57.490Z,15.60
2022-10-25T21:13:25.472Z,15.48
2022-10-25T21:15:52.662Z,15.49
2022-10-25T21:18:19.979Z,14.85
2022-10-25T21:20:48.721Z,15.33
2022-10-25T21:23:15.359Z,14.59
2022-10-25T21:25:41.939Z,14.63
2022-10-25T21:28:08.502Z,15.07
2022-10-25T21:30:35.183Z,14.15
2022-10-25T21:33:03.124Z,15.00
2022-10-25T21:35:29.821Z,15.00
2022-10-25T21:37:58.986Z,14.98
2022-10-25T21:40:25.903Z,14.99
2022-10-25T21:42:52.447Z,15.00
2022-10-25T21:45:19.035Z,14.98
2022-10-25T21:47:45.728Z,14.92
2022-10-25T21:50:12.611Z,14.77
2022-10-25T21:52:39.140Z,14.86
2022-10-25T21:55:06.268Z,14.44
2022-10-25T21:57:32.823Z,14.62
2022-10-25T21:59:59.370Z,14.60
2022-10-25T22:02:26.366Z,14.69
2022-10-25T22:04:53.026Z,14.67
2022-10-25T22:07:19.554Z,14.68
2022-10-25T22:09:46.273Z,14.34
2022-10-25T22:12:12.821Z,14.28
2022-10-25T22:14:39.382Z,14.33
2022-10-25T22:17:05.998Z,14.44
2022-10-25T22:19:32.599Z,13.91
2022-10-25T22:21:59.190Z,14.23
2022-10-25T22:24:25.755Z,14.16
2022-10-25T22:26:52.352Z,14.06
2022-10-25T22:29:18.917Z,14.01
2022-10-25T22:31:45.519Z,13.96
2022-10-25T22:34:12.054Z,13.66
2022-10-25T22:36:40.481Z,13.92
2022-10-25T22:39:08.421Z,13.88
2022-10-25T22:41:35.217Z,13.64
2022-10-25T22:44:02.262Z,13.96
2022-10-25T22:46:31.250Z,13.98
2022-10-25T22:48:59.453Z,13.79
2022-10-25T22:51:28.021Z,13.79
2022-10-25T22:53:55.110Z,13.60
2022-10-25T22:56:24.726Z,13.78
2022-10-25T22:58:53.767Z,13.65
2022-10-25T23:01:25.954Z,13.61
2022-10-25T23:03:54.813Z,13.75
2022-10-25T23:06:32.639Z,13.66
2022-10-25T23:09:01.121Z,13.61
2022-10-25T23:11:33.083Z,13.66
2022-10-25T23:14:01.239Z,13.75
2022-10-25T23:16:29.124Z,13.65
2022-10-25T23:18:56.229Z,13.72
2022-10-25T23:21:25.574Z,13.66
2022-10-25T23:23:53.893Z,13.44
2022-10-25T23:26:26.320Z,13.56
2022-10-25T23:28:54.153Z,13.14
2022-10-25T23:31:21.035Z,13.69
2022-10-25T23:33:54.906Z,13.75
2022-10-25T23:36:23.898Z,13.71
2022-10-25T23:38:52.213Z,13.72
2022-10-25T23:41:20.146Z,13.03
2022-10-25T23:43:47.054Z,13.05
2022-10-25T23:46:14.101Z,12.86
2022-10-25T23:48:40.806Z,12.62
2022-10-25T23:51:09.558Z,13.00
2022-10-25T23:53:36.371Z,13.09
2022-10-25T23:56:05.120Z,13.08
2022-10-25T23:58:31.727Z,13.17
